createdAt,value
2022-11-14T00:00:15.375Z,5.08
2022-11-14T00:03:19.384Z,5.09
2022-11-14T00:06:23.645Z,5.10
2022-11-14T00:09:29.238Z,5.11
2022-11-14T00:12:34.225Z,5.11
2022-11-14T00:15:38.256Z,5.11
2022-11-14T00:18:42.668Z,5.12
2022-11-14T00:21:47.629Z,5.11
2022-11-14T00:24:51.831Z,5.09
2022-11-14T00:27:58.155Z,5.08
2022-11-14T00:31:02.516Z,5.06
2022-11-14T00:34:06.818Z,5.03
2022-11-14T00:37:11.052Z,5.00
2022-11-14T00:40:15.595Z,4.99
2022-11-14T00:43:20.110Z,4.97
2022-11-14T00:46:24.365Z,4.95
2022-11-14T00:49:28.608Z,4.93
2022-11-14T00:52:32.703Z,4.94
2022-11-14T00:55:37.047Z,4.94
2022-11-14T00:58:41.460Z,4.92
2022-11-14T01:01:45.649Z,4.89
2022-11-14T01:04:50.003Z,4.86
2022-11-14T01:07:54.625Z,4.83
2022-11-14T01:11:00.444Z,4.80
2022-11-14T01:14:08.465Z,4.75
2022-11-14T01:17:13.361Z,4.73
2022-11-14T01:20:17.793Z,4.70
2022-11-14T01:23:22.501Z,4.67
2022-11-14T01:26:26.461Z,4.65
2022-11-14T01:29:31.038Z,4.62
2022-11-14T01:32:35.549Z,4.56
2022-11-14T01:35:40.038Z,4.50
2022-11-14T01:38:44.234Z,4.46
2022-11-14T01:41:48.458Z,4.42
2022-11-14T01:44:53.460Z,4.32
2022-11-14T01:47:57.995Z,4.23
2022-11-14T01:51:28.475Z,4.13
2022-11-14T01:54:41.177Z,4.02
2022-11-14T01:57:48.106Z,3.88
2022-11-14T02:00:52.165Z,3.69
2022-11-14T02:03:58.004Z,3.55
2022-11-14T02:07:04.837Z,3.47
2022-11-14T02:10:16.512Z,3.36
2022-11-14T02:13:20.461Z,3.27
2022-11-14T02:16:26.545Z,3.19
2022-11-14T02:20:05.623Z,3.08
2022-11-14T02:23:11.916Z,2.96
2022-11-14T02:26:21.615Z,2.84
2022-11-14T02:29:25.936Z,2.73
2022-11-14T02:32:32.675Z,2.64
2022-11-14T02:35:49.363Z,2.58
2022-11-14T02:38:53.228Z,2.50
2022-11-14T02:41:57.432Z,2.43
2022-11-14T02:45:01.901Z,2.44
2022-11-14T02:48:06.477Z,2.49
2022-11-14T02:51:10.574Z,2.58
2022-11-14T02:54:14.926Z,2.71
2022-11-14T02:57:19.254Z,2.82
2022-11-14T03:00:23.523Z,2.93
2022-11-14T03:03:28.053Z,3.01
2022-11-14T03:06:32.439Z,3.11
2022-11-14T03:09:37.094Z,3.19
2022-11-14T03:12:41.197Z,3.27
2022-11-14T03:15:45.862Z,3.35
2022-11-14T03:18:50.439Z,3.44
2022-11-14T03:21:54.724Z,3.51
2022-11-14T03:24:59.194Z,3.57
2022-11-14T03:28:03.517Z,3.61
2022-11-14T03:31:10.620Z,3.64
2022-11-14T03:34:14.947Z,3.65
2022-11-14T03:37:19.299Z,3.68
2022-11-14T03:40:23.635Z,3.69
2022-11-14T03:43:32.848Z,3.72
2022-11-14T03:46:37.250Z,3.76
2022-11-14T03:49:41.812Z,3.79
2022-11-14T03:52:49.272Z,3.82
2022-11-14T03:55:53.642Z,3.82
2022-11-14T03:58:58.297Z,3.84
2022-11-14T04:02:02.522Z,3.85
2022-11-14T04:05:07.333Z,3.89
2022-11-14T04:08:11.331Z,3.93
2022-11-14T04:11:15.765Z,3.95
2022-11-14T04:14:20.235Z,3.93
2022-11-14T04:17:24.773Z,3.92
2022-11-14T04:20:29.460Z,3.89
2022-11-14T04:23:33.714Z,3.90
2022-11-14T04:26:38.034Z,3.92
2022-11-14T04:29:42.408Z,3.95
2022-11-14T04:32:48.498Z,3.99
2022-11-14T04:35:52.716Z,4.03
2022-11-14T04:38:56.915Z,4.05
2022-11-14T04:42:01.179Z,4.10
2022-11-14T04:45:06.123Z,4.12
2022-11-14T04:48:10.794Z,4.15
2022-11-14T04:51:15.082Z,4.18
2022-11-14T04:54:19.441Z,4.21
2022-11-14T04:57:23.554Z,4.23
2022-11-14T05:00:27.864Z,4.25
2022-11-14T05:03:32.245Z,4.27
2022-11-14T05:06:36.728Z,4.28
2022-11-14T05:09:40.978Z,4.30
2022-11-14T05:12:45.507Z,4.33
2022-11-14T05:15:49.520Z,4.34
2022-11-14T05:18:55.101Z,4.35
2022-11-14T05:21:59.796Z,4.38
2022-11-14T05:25:05.130Z,4.39
2022-11-14T05:28:09.240Z,4.40
2022-11-14T05:31:20.933Z,4.42
2022-11-14T05:34:25.544Z,4.44
2022-11-14T05:37:29.924Z,4.45
2022-11-14T05:40:33.994Z,4.45
2022-11-14T05:43:39.475Z,4.45
2022-11-14T05:46:43.770Z,4.47
2022-11-14T05:49:47.971Z,4.46
2022-11-14T05:52:52.099Z,4.46
2022-11-14T05:56:01.732Z,4.46
2022-11-14T05:59:05.820Z,4.48
2022-11-14T06:02:10.352Z,4.48
2022-11-14T06:05:14.575Z,4.49
2022-11-14T06:08:19.177Z,4.49
2022-11-14T06:11:23.450Z,4.48
2022-11-14T06:14:27.779Z,4.49
2022-11-14T06:17:32.048Z,4.50
2022-11-14T06:20:36.982Z,4.49
2022-11-14T06:23:41.809Z,4.49
2022-11-14T06:26:46.304Z,4.49
2022-11-14T06:29:50.184Z,4.49
2022-11-14T06:32:59.171Z,4.48
2022-11-14T06:36:04.709Z,4.45
2022-11-14T06:39:08.811Z,4.43
2022-11-14T06:42:13.219Z,4.41
2022-11-14T06:45:17.704Z,4.39
2022-11-14T06:48:22.074Z,4.39
2022-11-14T06:51:26.389Z,4.38
2022-11-14T06:54:30.497Z,4.37
2022-11-14T06:57:34.969Z,4.37
2022-11-14T07:00:39.411Z,4.36
2022-11-14T07:03:45.281Z,4.35
2022-11-14T07:06:49.704Z,4.32
2022-11-14T07:09:54.485Z,4.32
2022-11-14T07:12:58.636Z,4.29
2022-11-14T07:16:04.235Z,4.24
2022-11-14T07:19:11.217Z,4.25
2022-11-14T07:22:15.921Z,4.28
2022-11-14T07:25:22.749Z,4.32
2022-11-14T07:28:28.362Z,4.37
2022-11-14T07:31:32.605Z,4.43
2022-11-14T07:34:36.931Z,4.50
2022-11-14T07:37:41.122Z,4.59
2022-11-14T07:40:59.578Z,4.68
2022-11-14T07:44:04.662Z,4.76
2022-11-14T07:47:09.093Z,4.86
2022-11-14T07:50:19.122Z,4.90
2022-11-14T07:53:24.630Z,4.95
2022-11-14T07:56:29.858Z,4.94
2022-11-14T07:59:34.094Z,4.93
2022-11-14T08:02:38.461Z,4.93
2022-11-14T08:05:42.754Z,4.96
2022-11-14T08:08:47.074Z,5.02
2022-11-14T08:11:51.928Z,5.04
2022-11-14T08:14:56.361Z,5.10
2022-11-14T08:18:01.784Z,5.19
2022-11-14T08:21:06.633Z,5.25
2022-11-14T08:24:11.144Z,5.32
2022-11-14T08:27:15.541Z,5.41
2022-11-14T08:30:20.212Z,5.50
2022-11-14T08:33:24.397Z,5.62
2022-11-14T08:36:28.865Z,5.70
2022-11-14T08:39:33.264Z,5.75
2022-11-14T08:42:37.745Z,5.79
2022-11-14T08:45:41.940Z,5.86
2022-11-14T08:48:46.575Z,5.90
2022-11-14T08:51:52.605Z,5.94
2022-11-14T08:54:57.185Z,6.02
2022-11-14T08:58:01.433Z,6.15
2022-11-14T09:01:07.473Z,6.26
2022-11-14T09:04:12.185Z,6.36
2022-11-14T09:07:16.964Z,6.46
2022-11-14T09:10:21.730Z,6.56
2022-11-14T09:13:27.769Z,6.65
2022-11-14T09:16:33.717Z,6.72
2022-11-14T09:19:38.032Z,6.68
2022-11-14T09:22:42.605Z,6.66
2022-11-14T09:25:46.998Z,6.68
2022-11-14T09:28:51.386Z,6.72
2022-11-14T09:31:56.851Z,6.75
2022-11-14T09:35:01.135Z,6.80
2022-11-14T09:38:08.193Z,6.87
2022-11-14T09:41:25.994Z,6.94
2022-11-14T09:44:40.981Z,7.03
2022-11-14T09:47:48.446Z,7.07
2022-11-14T09:51:10.733Z,7.11
2022-11-14T09:54:23.236Z,7.16
2022-11-14T09:57:27.940Z,7.20
2022-11-14T10:01:17.181Z,7.22
2022-11-14T10:04:44.756Z,7.23
2022-11-14T10:08:01.292Z,7.21
2022-11-14T10:11:35.120Z,7.25
2022-11-14T10:15:02.956Z,7.30
2022-11-14T10:18:16.520Z,7.31
2022-11-14T10:21:29.961Z,7.36
2022-11-14T10:24:43.618Z,7.41
2022-11-14T10:28:05.488Z,7.45
2022-11-14T10:31:19.294Z,7.50
2022-11-14T10:34:32.775Z,7.55
2022-11-14T10:37:53.345Z,7.58
2022-11-14T10:41:02.275Z,7.61
2022-11-14T10:44:11.450Z,7.62
2022-11-14T10:47:21.492Z,7.65
2022-11-14T10:50:34.328Z,7.69
2022-11-14T10:53:44.496Z,7.76
2022-11-14T10:56:50.967Z,7.82
2022-11-14T10:59:55.696Z,7.89
2022-11-14T11:02:59.720Z,7.94
2022-11-14T11:06:04.066Z,8.01
2022-11-14T11:09:36.535Z,8.04
2022-11-14T11:12:47.080Z,8.09
2022-11-14T11:15:57.389Z,8.16
2022-11-14T11:19:22.540Z,8.21
2022-11-14T11:22:36.557Z,8.27
2022-11-14T11:25:40.751Z,8.32
2022-11-14T11:29:09.589Z,8.37
2022-11-14T11:32:26.130Z,8.45
2022-11-14T11:35:30.255Z,8.50
2022-11-14T11:38:34.928Z,8.55
2022-11-14T11:42:07.767Z,8.62
2022-11-14T11:45:13.232Z,8.69
2022-11-14T11:48:20.087Z,8.70
2022-11-14T11:51:27.087Z,8.74
2022-11-14T11:54:44.331Z,8.77
2022-11-14T11:57:57.951Z,8.83
2022-11-14T12:01:02.357Z,8.91
2022-11-14T12:04:06.630Z,8.93
2022-11-14T12:07:40.198Z,8.99
2022-11-14T12:10:46.705Z,9.06
2022-11-14T12:14:15.126Z,9.15
2022-11-14T12:17:22.195Z,9.27
2022-11-14T12:20:26.675Z,9.35
2022-11-14T12:23:39.893Z,9.44
2022-11-14T12:27:06.383Z,9.46
2022-11-14T12:30:18.088Z,9.45
2022-11-14T12:33:34.649Z,9.44
2022-11-14T12:36:42.967Z,9.44
2022-11-14T12:40:06.220Z,9.43
2022-11-14T12:43:36.324Z,9.43
2022-11-14T12:47:05.881Z,9.46
2022-11-14T12:50:42.593Z,9.58
2022-11-14T12:53:47.351Z,9.74
2022-11-14T12:57:01.291Z,9.86
2022-11-14T13:00:08.537Z,10.02
2022-11-14T13:03:46.962Z,10.12
2022-11-14T13:07:09.561Z,10.21
2022-11-14T13:10:15.617Z,10.28
2022-11-14T13:13:38.169Z,10.36
2022-11-14T13:17:00.841Z,10.40
2022-11-14T13:20:44.776Z,10.49
2022-11-14T13:23:49.021Z,10.53
2022-11-14T13:26:54.893Z,10.56
2022-11-14T13:30:00.314Z,10.52
2022-11-14T13:33:04.909Z,10.48
2022-11-14T13:36:39.571Z,10.44
2022-11-14T13:40:20.806Z,10.49
2022-11-14T13:43:47.690Z,10.58
2022-11-14T13:47:28.917Z,10.69
2022-11-14T13:50:36.938Z,10.73
2022-11-14T13:53:42.279Z,10.76
2022-11-14T13:56:59.340Z,10.75
2022-11-14T14:00:03.341Z,10.76
2022-11-14T14:03:24.213Z,10.74
2022-11-14T14:06:49.599Z,10.70
2022-11-14T14:10:14.673Z,10.65
2022-11-14T14:13:40.468Z,10.57
2022-11-14T14:16:56.847Z,10.51
2022-11-14T14:20:33.657Z,10.40
2022-11-14T14:24:04.706Z,10.28
2022-11-14T14:27:36.474Z,10.14
2022-11-14T14:30:40.602Z,10.04
2022-11-14T14:33:48.007Z,9.92
2022-11-14T14:36:54.683Z,9.81
2022-11-14T14:40:05.545Z,9.70
2022-11-14T14:43:23.891Z,9.58
2022-11-14T14:46:33.248Z,9.45
2022-11-14T14:49:39.154Z,9.36
2022-11-14T14:52:44.000Z,9.23
2022-11-14T14:55:55.684Z,9.14
2022-11-14T14:59:16.049Z,9.01
2022-11-14T15:02:23.575Z,8.90
2022-11-14T15:05:29.585Z,8.73
2022-11-14T15:08:38.883Z,8.54
2022-11-14T15:11:45.265Z,8.40
2022-11-14T15:14:49.489Z,8.29
2022-11-14T15:17:56.113Z,8.21
2022-11-14T15:21:24.473Z,8.09
2022-11-14T15:24:29.833Z,7.92
2022-11-14T15:27:34.283Z,7.71
2022-11-14T15:30:39.284Z,7.53
2022-11-14T15:33:43.467Z,7.39
2022-11-14T15:37:06.480Z,7.24
2022-11-14T15:40:20.279Z,7.04
2022-11-14T15:43:42.997Z,6.79
2022-11-14T15:46:48.255Z,6.65
2022-11-14T15:50:02.722Z,6.46
2022-11-14T15:53:23.083Z,6.29
2022-11-14T15:56:28.987Z,6.13
2022-11-14T15:59:33.080Z,6.01
2022-11-14T16:02:46.307Z,5.84
2022-11-14T16:05:50.559Z,5.70
2022-11-14T16:08:54.825Z,5.61
2022-11-14T16:11:59.192Z,5.49
2022-11-14T16:15:03.978Z,5.34
2022-11-14T16:18:08.592Z,5.21
2022-11-14T16:21:16.183Z,5.09
2022-11-14T16:24:23.527Z,4.93
2022-11-14T16:27:28.070Z,4.79
2022-11-14T16:30:32.534Z,4.65
2022-11-14T16:33:36.982Z,4.56
2022-11-14T16:36:41.394Z,4.48
2022-11-14T16:39:45.753Z,4.39
2022-11-14T16:42:50.400Z,4.31
2022-11-14T16:45:54.955Z,4.24
2022-11-14T16:48:59.697Z,4.18
2022-11-14T16:52:08.663Z,4.11
2022-11-14T16:55:14.178Z,4.03
2022-11-14T16:58:18.555Z,3.95
2022-11-14T17:01:23.188Z,3.87
2022-11-14T17:04:27.531Z,3.79
2022-11-14T17:07:33.478Z,3.73
2022-11-14T17:10:45.930Z,3.65
2022-11-14T17:13:50.593Z,3.61
2022-11-14T17:16:55.278Z,3.45
2022-11-14T17:20:00.129Z,3.31
2022-11-14T17:23:04.750Z,3.21
2022-11-14T17:26:12.362Z,3.11
2022-11-14T17:29:16.719Z,3.04
2022-11-14T17:32:21.084Z,3.01
2022-11-14T17:35:25.476Z,3.00
2022-11-14T17:38:35.502Z,2.99
2022-11-14T17:41:39.781Z,2.93
2022-11-14T17:44:44.247Z,2.83
2022-11-14T17:47:48.658Z,2.77
2022-11-14T17:50:53.607Z,2.70
2022-11-14T17:53:57.862Z,2.69
2022-11-14T17:57:01.675Z,2.65
2022-11-14T18:00:07.392Z,2.52
2022-11-14T18:03:11.565Z,2.39
2022-11-14T18:06:19.415Z,2.32
2022-11-14T18:09:23.810Z,2.26
2022-11-14T18:12:28.437Z,2.23
2022-11-14T18:15:32.915Z,2.17
2022-11-14T18:18:38.054Z,2.11
2022-11-14T18:21:43.340Z,2.04
2022-11-14T18:24:48.049Z,1.99
2022-11-14T18:27:52.552Z,1.95
2022-11-14T18:30:57.016Z,1.87
2022-11-14T18:34:02.825Z,1.78
2022-11-14T18:37:07.085Z,1.69
2022-11-14T18:40:16.458Z,1.64
2022-11-14T18:43:21.388Z,1.56
2022-11-14T18:46:26.777Z,1.52
2022-11-14T18:49:31.049Z,1.51
2022-11-14T18:52:35.245Z,1.48
2022-11-14T18:55:40.723Z,1.46
2022-11-14T18:58:45.520Z,1.43
2022-11-14T19:01:50.868Z,1.42
2022-11-14T19:04:55.381Z,1.36
2022-11-14T19:07:59.683Z,1.32
2022-11-14T19:11:07.130Z,1.29
2022-11-14T19:14:12.023Z,1.28
2022-11-14T19:17:20.936Z,1.23
2022-11-14T19:20:25.793Z,1.18
2022-11-14T19:23:30.550Z,1.13
2022-11-14T19:26:35.187Z,1.09
2022-11-14T19:29:40.032Z,1.02
2022-11-14T19:32:44.547Z,0.92
2022-11-14T19:35:48.873Z,0.88
2022-11-14T19:38:54.621Z,0.86
2022-11-14T19:41:58.673Z,0.86
2022-11-14T19:45:03.120Z,0.84
2022-11-14T19:48:07.335Z,0.83
2022-11-14T19:51:14.143Z,0.80
2022-11-14T19:54:18.668Z,0.78
2022-11-14T19:57:22.892Z,0.78
2022-11-14T20:00:29.395Z,0.74
2022-11-14T20:03:34.531Z,0.74
2022-11-14T20:06:39.227Z,0.71
2022-11-14T20:09:43.728Z,0.68
2022-11-14T20:12:48.190Z,0.68
2022-11-14T20:15:52.811Z,0.71
2022-11-14T20:19:58.934Z,0.77
2022-11-14T20:23:03.907Z,0.80
2022-11-14T20:26:11.338Z,0.85
2022-11-14T20:29:15.871Z,0.90
2022-11-14T20:32:20.273Z,0.95
2022-11-14T20:35:24.739Z,1.00
2022-11-14T20:38:31.099Z,1.02
2022-11-14T20:41:35.477Z,1.04
2022-11-14T20:44:39.613Z,1.07
2022-11-14T20:47:44.106Z,1.08
2022-11-14T20:50:48.271Z,1.09
2022-11-14T20:53:54.948Z,1.13
2022-11-14T20:56:59.243Z,1.14
2022-11-14T21:00:05.350Z,1.15
2022-11-14T21:03:10.476Z,1.16
2022-11-14T21:06:16.569Z,1.17
2022-11-14T21:09:21.497Z,1.19
2022-11-14T21:12:26.210Z,1.22
2022-11-14T21:15:34.089Z,1.26
2022-11-14T21:18:40.740Z,1.30
2022-11-14T21:21:47.901Z,1.32
2022-11-14T21:24:53.490Z,1.33
2022-11-14T21:27:58.603Z,1.36
2022-11-14T21:31:13.934Z,1.39
2022-11-14T21:34:18.619Z,1.43
2022-11-14T21:37:23.645Z,1.47
2022-11-14T21:40:28.161Z,1.51
2022-11-14T21:43:34.293Z,1.55
2022-11-14T21:46:38.791Z,1.60
2022-11-14T21:49:43.409Z,1.62
2022-11-14T21:52:47.897Z,1.64
2022-11-14T21:55:52.839Z,1.63
2022-11-14T21:59:13.674Z,1.60
2022-11-14T22:02:37.586Z,1.59
2022-11-14T22:05:42.108Z,1.62
2022-11-14T22:08:46.409Z,1.64
2022-11-14T22:11:50.593Z,1.67
2022-11-14T22:14:55.063Z,1.68
2022-11-14T22:17:59.533Z,1.67
2022-11-14T22:21:05.198Z,1.68
2022-11-14T22:24:10.063Z,1.70
2022-11-14T22:27:14.433Z,1.70
2022-11-14T22:30:18.704Z,1.72
2022-11-14T22:33:23.071Z,1.72
2022-11-14T22:36:28.005Z,1.73
2022-11-14T22:39:32.757Z,1.74
2022-11-14T22:42:37.213Z,1.75
2022-11-14T22:45:41.502Z,1.77
2022-11-14T22:48:48.186Z,1.80
2022-11-14T22:51:52.710Z,1.81
2022-11-14T22:54:57.229Z,1.84
2022-11-14T22:58:01.709Z,1.86
2022-11-14T23:01:19.822Z,1.84
2022-11-14T23:04:24.138Z,1.82
2022-11-14T23:07:28.591Z,1.83
2022-11-14T23:10:36.633Z,1.86
2022-11-14T23:13:43.852Z,1.88
2022-11-14T23:16:48.098Z,1.91
2022-11-14T23:19:52.379Z,1.93
2022-11-14T23:22:56.806Z,1.92
2022-11-14T23:26:06.343Z,1.93
2022-11-14T23:29:14.242Z,1.90
2022-11-14T23:32:18.242Z,1.89
2022-11-14T23:35:22.620Z,1.84
2022-11-14T23:38:27.557Z,1.82
2022-11-14T23:41:32.108Z,1.79
2022-11-14T23:44:36.278Z,1.76
2022-11-14T23:47:40.356Z,1.75
2022-11-14T23:50:45.419Z,1.74
2022-11-14T23:53:49.757Z,1.73
2022-11-14T23:56:54.057Z,1.72
2022-11-14T23:59:58.341Z,1.69
